Time;durP1;ratioP1;P1;durP2;ratioP2;P2;SDS_P1;SDS_P2;PMS_P1;PMS_P2;Temp;Humidity;BMP_temperature;BMP_pressure;BME280_temperature;BME280_humidity;BME280_pressure;Samples;Min_cycle;Max_cycle;Signal;HPM_P1;HPM_P2
2022/07/11 00:01:04;;;;;;;10.52;3.05;;;;;;;16.30;78.68;100055.56;5122550;27;20064;-57
2022/07/11 00:03:29;;;;;;;6.20;2.92;;;;;;;16.31;78.49;100051.78;5105083;27;20043;-56
2022/07/11 00:05:55;;;;;;;8.10;3.25;;;;;;;16.29;78.43;100048.53;5120173;27;20020;-57
2022/07/11 00:08:20;;;;;;;6.90;2.92;;;;;;;16.37;77.87;100054.28;5116357;27;20019;-57
2022/07/11 00:10:46;;;;;;;8.85;3.20;;;;;;;16.29;78.42;100048.53;5127646;27;20368;-57
2022/07/11 00:13:12;;;;;;;5.15;2.72;;;;;;;16.31;78.37;100052.59;5122614;27;20377;-57
2022/07/11 00:15:37;;;;;;;4.90;3.13;;;;;;;16.31;78.55;100047.19;5103631;27;20379;-57
2022/07/11 00:18:03;;;;;;;7.43;2.90;;;;;;;16.33;78.27;100049.66;5119767;27;20031;-57
2022/07/11 00:20:28;;;;;;;10.25;2.88;;;;;;;16.31;78.28;100047.19;5117851;27;20024;-57
2022/07/11 00:22:54;;;;;;;7.53;3.10;;;;;;;16.32;78.13;100042.59;5120793;27;20020;-57
2022/07/11 00:25:20;;;;;;;9.38;3.20;;;;;;;16.36;77.97;100043.72;5126104;27;20027;-57
2022/07/11 00:27:45;;;;;;;6.78;2.78;;;;;;;16.30;78.71;100044.72;5117147;27;20084;-57
2022/07/11 00:30:11;;;;;;;4.78;2.80;;;;;;;16.30;78.54;100045.56;5101383;28;20024;-57
2022/07/11 00:32:36;;;;;;;8.07;3.00;;;;;;;16.26;78.58;100043.66;5121755;27;20117;-57
2022/07/11 00:35:02;;;;;;;7.47;3.17;;;;;;;16.28;78.51;100042.31;5121777;27;20026;-57
2022/07/11 00:37:27;;;;;;;5.32;2.60;;;;;;;16.24;78.35;100038.47;5113417;27;20031;-57
2022/07/11 00:39:53;;;;;;;4.70;3.03;;;;;;;16.30;78.31;100033.91;5115902;27;20034;-57
2022/07/11 00:42:18;;;;;;;6.63;3.42;;;;;;;16.31;78.40;100035.56;5125473;27;20028;-57
2022/07/11 00:44:44;;;;;;;10.20;3.38;;;;;;;16.33;78.41;100025.31;5120983;27;20440;-57
2022/07/11 00:47:09;;;;;;;10.63;3.10;;;;;;;16.27;78.69;100034.44;5123101;27;20075;-56
2022/07/11 00:49:35;;;;;;;6.63;3.00;;;;;;;16.27;78.68;100027.13;5094755;27;20524;-57
2022/07/11 00:52:00;;;;;;;6.18;3.00;;;;;;;16.26;78.62;100017.41;5088955;27;20031;-57
2022/07/11 00:54:25;;;;;;;5.65;2.85;;;;;;;16.27;78.61;100023.63;5101044;28;20039;-57
2022/07/11 00:56:51;;;;;;;9.48;2.97;;;;;;;16.21;79.09;100028.19;5085971;27;20039;-58
2022/07/11 00:59:17;;;;;;;5.85;2.97;;;;;;;16.17;79.28;100025.19;5099253;28;20027;-57
2022/07/11 01:01:43;;;;;;;6.55;3.20;;;;;;;16.14;79.44;100024.88;5076661;28;20055;-58
2022/07/11 01:04:08;;;;;;;6.47;3.00;;;;;;;16.10;79.72;100030.03;5101088;28;20027;-57
2022/07/11 01:06:35;;;;;;;6.70;3.00;;;;;;;16.14;79.43;100027.59;5101606;28;20043;-57
2022/07/11 01:09:00;;;;;;;4.90;2.72;;;;;;;16.12;79.52;100030.53;5125801;27;20031;-58
2022/07/11 01:11:26;;;;;;;11.73;3.10;;;;;;;16.18;79.39;100021.41;5117717;27;20028;-58
2022/07/11 01:13:52;;;;;;;4.47;2.90;;;;;;;16.20;79.00;100023.88;5118690;27;20466;-58
2022/07/11 01:16:18;;;;;;;5.50;3.03;;;;;;;16.23;78.73;100022.53;5121583;27;20066;-58
2022/07/11 01:18:48;;;;;;;6.65;3.05;;;;;;;16.25;78.88;100021.19;5115098;27;20038;-58
2022/07/11 01:21:18;;;;;;;7.47;2.80;;;;;;;16.28;78.44;100019.84;5120951;27;20024;-58
2022/07/11 01:23:45;;;;;;;7.03;3.00;;;;;;;16.25;78.60;100015.78;5122548;27;20039;-57
2022/07/11 01:26:10;;;;;;;6.80;3.08;;;;;;;16.29;78.24;100019.59;5119984;27;20030;-57
2022/07/11 01:28:36;;;;;;;6.47;2.65;;;;;;;16.33;78.24;100015.28;5085674;27;20477;-57
2022/07/11 01:31:01;;;;;;;7.63;3.17;;;;;;;16.33;79.01;100011.78;5105124;27;20035;-58
2022/07/11 01:33:27;;;;;;;6.10;3.28;;;;;;;16.32;78.96;100015.53;5124341;27;20031;-58
2022/07/11 01:35:52;;;;;;;6.97;2.80;;;;;;;16.27;79.84;99999.28;5123719;27;20505;-58
2022/07/11 01:38:17;;;;;;;7.18;3.00;;;;;;;16.35;79.22;100009.63;5118327;27;20023;-57
2022/07/11 01:40:43;;;;;;;8.23;3.40;;;;;;;16.27;79.35;100008.19;5121535;27;20440;-56
2022/07/11 01:43:08;;;;;;;7.07;3.65;;;;;;;16.30;79.32;100009.56;5123093;27;20273;-58
2022/07/11 01:45:34;;;;;;;7.30;2.97;;;;;;;16.26;79.31;100003.06;5121803;27;20027;-56
2022/07/11 01:47:59;;;;;;;9.93;3.20;;;;;;;16.31;78.86;100003.09;5100511;27;20035;-55
2022/07/11 01:50:25;;;;;;;4.68;2.92;;;;;;;16.23;79.83;100001.69;5123814;27;20077;-56
2022/07/11 01:52:50;;;;;;;5.32;2.97;;;;;;;16.26;80.18;100011.19;5118777;27;20016;-56
2022/07/11 01:55:15;;;;;;;8.75;3.47;;;;;;;16.24;80.29;100003.31;5118723;27;20457;-58
2022/07/11 01:57:41;;;;;;;4.95;3.08;;;;;;;16.29;79.83;100005.25;5123526;27;20488;-58
2022/07/11 02:00:10;;;;;;;6.07;3.30;;;;;;;16.24;80.70;100007.91;5095311;27;20477;-58
2022/07/11 02:02:36;;;;;;;6.28;2.70;;;;;;;16.33;79.25;100001.75;5114410;27;20035;-57
2022/07/11 02:05:01;;;;;;;5.68;3.10;;;;;;;16.21;80.33;100000.34;5116470;27;20080;-57
2022/07/11 02:10:10;;;;;;;3.95;2.70;;;;;;;16.35;78.41;100001.50;5108686;27;20108;-58
2022/07/11 02:12:36;;;;;;;5.85;2.63;;;;;;;16.30;78.88;99988.78;5115177;27;20466;-57
2022/07/11 02:15:01;;;;;;;8.82;3.45;;;;;;;16.22;78.93;99993.84;5118985;27;20419;-57
2022/07/11 02:17:27;;;;;;;6.00;2.78;;;;;;;16.25;78.98;99993.31;5113864;27;20561;-57
2022/07/11 02:19:53;;;;;;;6.75;2.70;;;;;;;16.28;79.08;99987.41;5118789;27;20023;-57
2022/07/11 02:22:19;;;;;;;7.40;2.97;;;;;;;16.15;79.79;99989.50;5115944;27;20016;-57
2022/07/11 02:24:44;;;;;;;7.00;2.75;;;;;;;16.27;79.02;99981.16;5119041;27;20030;-57
2022/07/11 02:27:10;;;;;;;6.85;2.72;;;;;;;16.35;78.71;99988.00;5122272;27;20063;-57
2022/07/11 02:29:35;;;;;;;6.43;3.15;;;;;;;16.33;77.70;99984.72;5116319;27;20092;-56
2022/07/11 02:32:01;;;;;;;6.95;3.60;;;;;;;16.39;78.08;99986.38;5127905;27;20020;-57
2022/07/11 02:34:27;;;;;;;6.70;3.00;;;;;;;16.26;78.68;99979.53;5118583;27;20019;-57
2022/07/11 02:36:52;;;;;;;7.10;2.92;;;;;;;16.32;78.56;99989.28;5117520;27;20477;-58
2022/07/11 02:39:18;;;;;;;7.78;2.97;;;;;;;16.30;78.78;99993.34;5117969;27;20587;-57
2022/07/11 02:41:43;;;;;;;6.88;2.97;;;;;;;16.38;78.43;99988.25;5117392;27;20039;-57
2022/07/11 02:44:09;;;;;;;5.63;3.08;;;;;;;16.40;79.10;99988.00;5113681;27;20028;-57
2022/07/11 02:46:34;;;;;;;8.13;2.95;;;;;;;16.27;80.25;99985.75;5117546;27;20015;-57
2022/07/11 02:48:59;;;;;;;8.25;3.33;;;;;;;16.30;80.34;99996.03;5117520;27;20032;-57
2022/07/11 02:51:25;;;;;;;7.40;2.85;;;;;;;16.30;80.15;99996.03;5122881;27;20023;-57
2022/07/11 02:53:50;;;;;;;7.65;3.22;;;;;;;16.27;80.41;100001.97;5118035;27;20027;-57
2022/07/11 02:56:16;;;;;;;6.18;3.17;;;;;;;16.18;81.36;99999.78;5121741;27;20035;-57
2022/07/11 02:58:41;;;;;;;5.80;3.00;;;;;;;16.12;81.70;100003.50;5114954;27;20051;-57
2022/07/11 03:01:06;;;;;;;7.00;3.10;;;;;;;16.08;81.93;99999.72;5099653;27;20028;-57
2022/07/11 03:03:32;;;;;;;9.38;3.17;;;;;;;16.01;81.61;100004.53;5117773;27;20077;-57
2022/07/11 03:05:57;;;;;;;8.48;3.38;;;;;;;15.93;81.37;100003.13;5119782;27;20035;-57
2022/07/11 03:08:23;;;;;;;9.32;3.13;;;;;;;16.00;81.29;100002.06;5116195;27;20023;-57
2022/07/11 03:10:48;;;;;;;8.88;3.33;;;;;;;16.11;81.26;100010.00;5122131;27;20030;-57
2022/07/11 03:13:14;;;;;;;7.10;3.28;;;;;;;16.00;80.93;100007.47;5112474;27;20019;-58
2022/07/11 03:15:39;;;;;;;6.65;2.90;;;;;;;16.14;79.98;100006.78;5118144;27;20015;-56
2022/07/11 03:18:04;;;;;;;5.90;2.88;;;;;;;16.18;80.20;100005.19;5114797;27;20092;-58
2022/07/11 03:20:30;;;;;;;7.28;3.20;;;;;;;16.21;79.62;100008.44;5094517;28;20458;-57
2022/07/11 03:22:55;;;;;;;6.47;3.08;;;;;;;16.20;80.05;100001.41;5120472;27;20034;-57
2022/07/11 03:25:21;;;;;;;6.65;2.95;;;;;;;16.22;79.77;100007.34;5122515;27;20030;-58
2022/07/11 03:27:46;;;;;;;6.28;2.85;;;;;;;16.14;80.84;100000.56;5115992;27;20035;-56
2022/07/11 03:30:14;;;;;;;5.68;2.97;;;;;;;16.12;80.67;100010.81;5116554;27;20030;-56
2022/07/11 03:32:40;;;;;;;6.35;2.80;;;;;;;16.23;80.43;100003.59;5116016;27;20067;-56
2022/07/11 03:37:50;;;;;;;7.65;3.60;;;;;;;16.27;79.63;100007.41;5114219;28;20088;-56
2022/07/11 03:40:15;;;;;;;7.72;3.70;;;;;;;16.26;79.77;100005.78;5122648;28;20019;-56
2022/07/11 03:42:40;;;;;;;10.38;3.17;;;;;;;16.23;79.76;100009.00;5119868;28;20026;-56
2022/07/11 03:45:06;;;;;;;7.90;3.28;;;;;;;16.30;79.72;100012.28;5108339;28;20384;-56
2022/07/11 03:47:32;;;;;;;9.43;3.65;;;;;;;16.32;80.31;100010.13;5119655;28;20059;-56
2022/07/11 03:49:57;;;;;;;5.97;3.03;;;;;;;16.27;80.70;100012.81;5116831;28;20453;-56
2022/07/11 03:52:23;;;;;;;8.63;3.60;;;;;;;16.26;80.25;100011.19;5118504;28;20058;-56
2022/07/11 03:54:48;;;;;;;7.63;3.60;;;;;;;16.25;79.27;100006.84;5115935;28;20459;-56
2022/07/11 03:57:13;;;;;;;7.57;3.67;;;;;;;16.25;79.85;100012.25;5119511;28;20027;-56
2022/07/11 03:59:39;;;;;;;11.98;3.72;;;;;;;16.29;79.64;100013.38;5102162;28;20076;-57
2022/07/11 04:02:04;;;;;;;8.43;3.92;;;;;;;16.34;79.11;100007.97;5117476;28;20044;-56
2022/07/11 04:04:30;;;;;;;6.43;3.45;;;;;;;16.48;78.52;100009.16;5117603;28;20038;-56
2022/07/11 04:06:55;;;;;;;15.63;4.97;;;;;;;16.36;79.91;100005.84;5101004;28;20084;-58
2022/07/11 04:09:21;;;;;;;7.07;3.97;;;;;;;16.26;79.66;100005.78;5100487;28;20030;-56
2022/07/11 04:11:47;;;;;;;12.95;3.85;;;;;;;16.25;79.79;100009.53;5121421;28;20023;-58
2022/07/11 04:14:12;;;;;;;9.77;4.32;;;;;;;16.27;80.19;100012.81;5109151;28;20426;-58
2022/07/11 04:16:37;;;;;;;8.18;4.10;;;;;;;16.23;80.14;100000.91;5126214;28;20027;-58
2022/07/11 04:19:04;;;;;;;8.98;4.15;;;;;;;16.34;79.74;100007.97;5112518;28;20039;-58
2022/07/11 04:21:29;;;;;;;7.93;4.63;;;;;;;16.32;79.44;99999.31;5114086;28;20069;-58
2022/07/11 04:23:55;;;;;;;11.65;4.70;;;;;;;16.34;79.33;100002.56;5120215;28;20028;-58
2022/07/11 04:26:20;;;;;;;14.30;4.38;;;;;;;16.32;79.75;100008.22;5119640;28;20031;-58
2022/07/11 04:28:45;;;;;;;14.02;4.50;;;;;;;16.44;79.22;100001.81;5118886;28;20036;-58
2022/07/11 04:31:11;;;;;;;13.55;4.20;;;;;;;16.39;79.66;100016.13;5085148;27;20024;-56
2022/07/11 04:33:36;;;;;;;10.25;4.85;;;;;;;16.47;79.23;100007.50;5121199;27;20024;-56
2022/07/11 04:36:02;;;;;;;11.93;4.63;;;;;;;16.36;79.72;100005.84;5117763;27;20477;-56
2022/07/11 04:38:28;;;;;;;16.17;4.50;;;;;;;16.45;79.22;100003.44;5113608;27;20530;-58
2022/07/11 04:40:53;;;;;;;12.93;4.30;;;;;;;16.54;79.01;100008.09;5124177;27;20030;-58
2022/07/11 04:43:19;;;;;;;12.45;4.70;;;;;;;16.59;78.95;100012.72;5109984;27;20409;-57
2022/07/11 04:45:44;;;;;;;14.15;4.65;;;;;;;16.68;78.33;100018.47;5109530;27;20035;-58
2022/07/11 04:48:10;;;;;;;14.82;3.97;;;;;;;16.74;78.38;100011.97;5118447;27;20042;-56
2022/07/11 04:50:35;;;;;;;15.15;4.13;;;;;;;16.84;77.72;100014.75;5121608;27;20412;-57
2022/07/11 04:53:01;;;;;;;13.18;4.25;;;;;;;16.84;77.35;100012.06;5116721;27;20049;-57
2022/07/11 04:55:26;;;;;;;7.80;3.60;;;;;;;16.92;76.78;100014.25;5120440;27;20027;-56
2022/07/11 04:57:52;;;;;;;12.93;4.15;;;;;;;16.69;78.37;100020.88;5123704;27;20424;-59
2022/07/11 05:00:18;;;;;;;10.63;4.30;;;;;;;16.77;78.33;100027.69;5119272;27;20440;-56
2022/07/11 05:02:43;;;;;;;21.60;4.50;;;;;;;16.75;78.02;100024.44;5129787;27;20043;-57
2022/07/11 05:05:09;;;;;;;9.82;4.10;;;;;;;16.76;78.60;100021.47;5100928;28;20023;-56
2022/07/11 05:07:34;;;;;;;13.90;4.75;;;;;;;16.66;78.32;100026.03;5093869;28;20022;-57
2022/07/11 05:09:59;;;;;;;17.65;5.13;;;;;;;16.64;78.81;100022.75;5123837;27;20396;-57
2022/07/11 05:12:25;;;;;;;15.73;4.93;;;;;;;16.65;79.05;100029.78;5124713;27;20031;-56
2022/07/11 05:14:50;;;;;;;17.98;4.95;;;;;;;16.65;79.54;100025.22;5099605;28;20019;-56
2022/07/11 05:17:16;;;;;;;13.60;4.35;;;;;;;16.71;78.99;100034.16;5120828;27;20350;-57
2022/07/11 05:19:41;;;;;;;14.85;5.25;;;;;;;16.64;80.41;100039.00;5117958;27;20031;-57
2022/07/11 05:22:07;;;;;;;14.80;5.07;;;;;;;16.58;79.60;100027.34;5109065;27;20027;-56
2022/07/11 05:24:32;;;;;;;14.25;4.70;;;;;;;16.81;79.09;100034.25;5117782;27;20449;-57
2022/07/11 05:26:57;;;;;;;13.45;5.28;;;;;;;16.86;78.72;100042.38;5118589;27;20727;-57
2022/07/11 05:29:23;;;;;;;14.43;5.15;;;;;;;16.80;78.98;100038.03;5094381;27;20439;-57
2022/07/11 05:31:50;;;;;;;16.35;6.25;;;;;;;16.85;78.77;100039.94;5117427;27;20024;-57
2022/07/11 05:34:19;;;;;;;12.75;6.55;;;;;;;16.92;78.84;100049.44;5098871;28;20027;-57
2022/07/11 05:36:45;;;;;;;15.43;6.27;;;;;;;16.86;78.93;100042.38;5119772;27;20098;-56
2022/07/11 05:39:10;;;;;;;16.08;8.05;;;;;;;16.75;79.86;100043.41;5122182;27;20484;-56
2022/07/11 05:41:36;;;;;;;21.75;9.88;;;;;;;16.79;79.88;100041.81;5117725;27;20038;-57
2022/07/11 05:44:01;;;;;;;26.05;10.55;;;;;;;16.91;79.53;100041.59;5122810;27;20023;-57
2022/07/11 05:46:27;;;;;;;20.52;9.70;;;;;;;16.72;80.09;100047.41;5116612;27;20023;-57
2022/07/11 05:48:52;;;;;;;18.88;9.50;;;;;;;16.63;81.19;100043.59;5101175;27;20023;-56
2022/07/11 05:51:18;;;;;;;19.65;8.32;;;;;;;16.60;80.92;100050.34;5114845;27;20053;-56
2022/07/11 05:53:44;;;;;;;20.10;9.55;;;;;;;16.67;80.91;100050.09;5116973;27;20477;-57
2022/07/11 05:56:09;;;;;;;24.02;10.32;;;;;;;16.68;80.95;100056.34;5098829;27;20106;-57
2022/07/11 05:58:35;;;;;;;17.95;10.45;;;;;;;16.69;81.22;100060.69;5116965;27;20042;-57
2022/07/11 06:01:00;;;;;;;19.05;9.73;;;;;;;16.63;81.37;100059.03;5120306;27;20043;-56
2022/07/11 06:03:26;;;;;;;24.42;9.68;;;;;;;16.69;81.14;100055.25;5111853;27;20035;-56
2022/07/11 06:05:51;;;;;;;20.67;9.23;;;;;;;16.66;81.25;100058.50;5102510;27;20027;-57
2022/07/11 06:11:01;;;;;;;23.25;9.65;;;;;;;16.57;81.99;100061.72;5111401;27;20062;-56
2022/07/11 06:13:29;;;;;;;17.45;9.35;;;;;;;16.63;81.85;100056.31;5105223;27;20023;-57
2022/07/11 06:15:55;;;;;;;19.20;10.75;;;;;;;16.57;81.86;100061.72;5097987;27;20424;-57
2022/07/11 06:18:20;;;;;;;19.67;10.88;;;;;;;16.52;82.21;100061.66;5118488;27;20027;-58
2022/07/11 06:20:46;;;;;;;26.23;10.82;;;;;;;16.59;82.04;100059.53;5120320;27;20038;-57
2022/07/11 06:23:11;;;;;;;24.75;11.13;;;;;;;16.67;81.58;100050.09;5121384;27;20069;-57
2022/07/11 06:25:37;;;;;;;20.80;11.40;;;;;;;16.80;80.58;100062.41;5118481;27;20031;-57
2022/07/11 06:28:04;;;;;;;26.75;10.52;;;;;;;16.72;81.31;100058.25;5103179;27;20392;-57
2022/07/11 06:30:30;;;;;;;22.95;11.95;;;;;;;16.57;82.17;100055.47;5119431;27;20076;-54
2022/07/11 06:32:57;;;;;;;24.92;10.98;;;;;;;16.65;81.54;100056.84;5109276;27;20027;-55
2022/07/11 06:35:22;;;;;;;18.17;10.90;;;;;;;16.70;81.70;100054.16;5120881;27;20449;-56
2022/07/11 06:37:47;;;;;;;25.05;10.93;;;;;;;16.60;81.80;100063.88;5115361;27;20034;-57
2022/07/11 06:40:13;;;;;;;21.38;11.02;;;;;;;16.59;81.58;100048.72;5102472;28;20027;-57
2022/07/11 06:42:38;;;;;;;24.83;11.60;;;;;;;16.54;81.94;100056.78;5117462;27;20015;-56
2022/07/11 06:45:04;;;;;;;28.00;10.07;;;;;;;16.55;82.13;100058.44;5120299;27;20553;-56
2022/07/11 06:47:30;;;;;;;28.35;11.32;;;;;;;16.61;82.13;100054.69;5092642;28;20470;-56
2022/07/11 06:49:55;;;;;;;25.00;11.52;;;;;;;16.67;82.09;100060.13;5121602;27;20028;-57
2022/07/11 06:52:21;;;;;;;23.33;12.95;;;;;;;16.52;82.10;100060.84;5118077;27;20389;-56
2022/07/11 06:54:46;;;;;;;22.08;12.20;;;;;;;16.61;81.80;100062.81;5121882;27;20474;-57
2022/07/11 06:57:12;;;;;;;32.33;14.23;;;;;;;16.48;82.32;100057.84;5118896;27;20046;-56
2022/07/11 06:59:37;;;;;;;26.27;15.30;;;;;;;16.42;82.24;100061.59;5116452;27;20045;-56
2022/07/11 07:02:03;;;;;;;27.33;12.98;;;;;;;16.36;82.12;100057.22;5118718;27;20047;-56
2022/07/11 07:04:28;;;;;;;20.65;12.82;;;;;;;16.37;82.60;100067.81;5111214;27;20041;-56
2022/07/11 07:06:58;;;;;;;25.10;13.02;;;;;;;16.43;82.56;100065.13;5116618;27;20019;-56
2022/07/11 07:09:24;;;;;;;25.75;12.82;;;;;;;16.49;82.53;100070.28;5115533;27;20019;-55
2022/07/11 07:11:49;;;;;;;19.65;12.13;;;;;;;16.48;82.23;100074.09;5114490;27;20034;-56
2022/07/11 07:14:15;;;;;;;19.38;12.23;;;;;;;16.55;81.36;100071.97;5092572;28;20049;-57
2022/07/11 07:16:40;;;;;;;22.40;14.00;;;;;;;16.57;81.09;100069.81;5098672;28;20367;-57
2022/07/11 07:19:06;;;;;;;26.55;14.10;;;;;;;16.59;80.78;100073.06;5100583;28;20027;-57
2022/07/11 07:21:31;;;;;;;20.60;12.70;;;;;;;16.60;80.60;100077.41;5117593;27;20034;-57
2022/07/11 07:23:57;;;;;;;20.92;12.68;;;;;;;16.58;80.78;100074.16;5113312;27;20023;-57
2022/07/11 07:26:22;;;;;;;30.42;16.35;;;;;;;16.59;80.79;100085.78;5113210;27;20019;-57
2022/07/11 07:28:48;;;;;;;27.15;15.40;;;;;;;16.61;80.82;100086.34;5119381;27;20057;-58
2022/07/11 07:31:13;;;;;;;35.72;16.55;;;;;;;16.44;81.93;100081.09;5100022;28;20028;-57
2022/07/11 07:33:39;;;;;;;28.40;16.70;;;;;;;16.46;82.00;100087.06;5118919;27;20023;-57
2022/07/11 07:36:04;;;;;;;29.35;17.67;;;;;;;16.51;81.95;100094.41;5120498;27;20027;-56
2022/07/11 07:38:30;;;;;;;23.75;13.15;;;;;;;16.50;81.89;100099.00;5121786;28;20027;-56
2022/07/11 07:40:55;;;;;;;24.20;14.40;;;;;;;16.42;82.54;100096.75;5117135;28;20020;-56
2022/07/11 07:43:20;;;;;;;24.08;13.43;;;;;;;16.35;82.87;100097.00;5125939;28;20027;-56
2022/07/11 07:45:47;;;;;;;18.55;12.30;;;;;;;16.46;81.89;100097.88;5117586;28;20249;-57
2022/07/11 07:48:12;;;;;;;19.58;13.55;;;;;;;16.44;81.92;100093.81;5120771;28;20030;-57
2022/07/11 07:50:38;;;;;;;25.00;13.93;;;;;;;16.67;81.30;100095.31;5116289;28;20106;-57
2022/07/11 07:53:03;;;;;;;22.77;12.45;;;;;;;16.62;81.10;100096.09;5097577;28;20027;-57
2022/07/11 07:55:29;;;;;;;28.13;13.48;;;;;;;16.67;80.88;100095.31;5120027;28;20023;-57
2022/07/11 07:57:54;;;;;;;22.20;12.43;;;;;;;16.64;80.66;100093.94;5113012;28;20500;-55
2022/07/11 08:03:08;;;;;;;23.33;10.27;;;;;;;16.59;81.08;100097.41;5096125;28;20532;-56
2022/07/11 08:05:33;;;;;;;27.08;12.02;;;;;;;16.58;80.88;100098.50;5103519;28;20083;-56
2022/07/11 08:07:59;;;;;;;31.50;12.80;;;;;;;16.61;81.42;100095.28;5120784;27;20044;-55
2022/07/11 08:10:24;;;;;;;21.80;13.80;;;;;;;16.83;80.25;100102.47;5126569;27;20027;-56
2022/07/11 08:12:50;;;;;;;27.52;13.43;;;;;;;16.91;79.91;100096.56;5119160;27;20393;-56
2022/07/11 08:15:15;;;;;;;24.23;14.27;;;;;;;17.11;79.61;100103.16;5125640;27;20031;-58
2022/07/11 08:17:41;;;;;;;24.90;14.15;;;;;;;17.42;77.73;100098.66;5122640;27;20512;-57
2022/07/11 08:20:07;;;;;;;21.67;12.80;;;;;;;17.51;77.13;100101.66;5118847;27;20088;-57
2022/07/11 08:22:32;;;;;;;28.75;14.13;;;;;;;17.55;77.04;100102.78;5123356;27;20035;-58
2022/07/11 08:24:58;;;;;;;23.27;13.23;;;;;;;17.75;76.25;100105.53;5130010;27;20051;-56
2022/07/11 08:27:23;;;;;;;22.15;12.75;;;;;;;17.78;76.27;100104.97;5101473;27;20023;-57
2022/07/11 08:29:48;;;;;;;19.88;11.18;;;;;;;17.76;76.12;100109.84;5108176;27;20035;-58
2022/07/11 08:32:14;;;;;;;22.02;11.25;;;;;;;17.97;75.21;100107.19;5126156;27;20032;-56
2022/07/11 08:34:40;;;;;;;26.75;11.93;;;;;;;17.92;75.59;100105.28;5118923;27;20100;-58
2022/07/11 08:37:05;;;;;;;19.08;10.05;;;;;;;18.22;73.60;100107.22;5122349;27;20024;-56
2022/07/11 08:39:30;;;;;;;18.02;9.43;;;;;;;18.30;73.70;100097.72;5123338;27;20038;-57
2022/07/11 08:41:56;;;;;;;18.40;10.23;;;;;;;18.27;73.49;100101.78;5120906;27;20023;-58
2022/07/11 08:44:21;;;;;;;18.30;10.02;;;;;;;18.28;73.16;100103.41;5085752;27;20042;-56
2022/07/11 08:46:47;;;;;;;21.75;12.40;;;;;;;18.22;73.80;100104.50;5117557;27;20019;-57
2022/07/11 08:49:12;;;;;;;29.13;11.70;;;;;;;17.83;75.10;100105.00;5076365;28;20024;-58
2022/07/11 08:51:38;;;;;;;19.20;12.25;;;;;;;17.84;75.71;100103.13;5122034;27;20072;-58
2022/07/11 08:54:03;;;;;;;27.23;13.00;;;;;;;18.05;75.29;100101.25;5125671;27;20345;-58
2022/07/11 08:56:29;;;;;;;24.75;13.07;;;;;;;17.98;74.94;100096.09;5106653;27;20444;-57
2022/07/11 08:58:54;;;;;;;20.33;10.35;;;;;;;18.02;74.88;100101.78;5130379;27;20045;-57
2022/07/11 09:01:24;;;;;;;18.15;9.25;;;;;;;17.87;75.24;100103.41;5084789;27;20043;-56
2022/07/11 09:03:50;;;;;;;17.23;8.82;;;;;;;18.01;74.54;100105.59;5119131;27;20054;-57
2022/07/11 09:06:15;;;;;;;16.90;7.93;;;;;;;18.26;73.71;100102.88;5100594;28;20020;-57
2022/07/11 09:08:40;;;;;;;16.55;9.05;;;;;;;17.96;74.56;100105.56;5124374;27;20019;-57
2022/07/11 09:11:06;;;;;;;26.55;9.68;;;;;;;17.89;74.89;100103.13;5124259;27;20413;-57
2022/07/11 09:13:32;;;;;;;138.27;22.00;;;;;;;18.13;75.00;100095.28;5117003;27;20034;-57
2022/07/11 09:16:04;;;;;;;53.03;16.35;;;;;;;18.23;74.39;100098.00;5101306;27;20027;-57
2022/07/11 09:18:31;;;;;;;23.42;12.85;;;;;;;18.36;74.13;100101.25;5098925;27;20537;-56
2022/07/11 09:26:34;;;;;;;26.95;15.40;;;;;;;18.08;75.92;100096.09;5108052;27;20030;-57
2022/07/11 09:29:00;;;;;;;31.00;15.98;;;;;;;18.18;75.68;100095.28;5121707;27;20377;-57
2022/07/11 09:31:27;;;;;;;25.50;16.02;;;;;;;18.42;74.80;100095.53;5118873;27;20023;-57
2022/07/11 09:33:59;;;;;;;26.60;15.90;;;;;;;18.24;75.07;100093.38;5118308;27;20035;-56
2022/07/11 09:36:43;;;;;;;27.77;14.65;;;;;;;18.38;74.16;100086.31;5117459;27;20019;-57
2022/07/11 09:39:13;;;;;;;25.08;14.73;;;;;;;18.64;73.32;100086.25;5120505;27;20031;-57
2022/07/11 09:41:39;;;;;;;;;;;;;;;18.56;73.64;100084.91;5103146;27;20374;-56
2022/07/11 09:44:11;;;;;;;32.13;17.08;;;;;;;18.80;73.08;100090.59;5117236;27;19915;-57
2022/07/11 09:46:37;;;;;;;31.05;18.10;;;;;;;18.74;73.45;100097.91;5120863;27;20482;-57
2022/07/11 09:49:03;;;;;;;30.73;16.65;;;;;;;18.52;74.59;100102.84;5115929;27;20040;-57
2022/07/11 09:51:28;;;;;;;37.03;17.80;;;;;;;18.26;75.45;100102.88;5119404;27;20112;-57
2022/07/11 09:53:56;;;;;;;32.50;18.67;;;;;;;18.44;75.46;100103.41;5105661;27;20043;-57
2022/07/11 09:56:45;;;;;;;26.58;18.45;;;;;;;18.24;75.63;100102.31;5116384;27;20385;-56
2022/07/11 09:59:12;;;;;;;36.30;22.45;;;;;;;18.43;75.42;100107.22;5103968;27;20042;-56
2022/07/11 10:01:37;;;;;;;32.92;20.85;;;;;;;18.49;75.43;100100.66;5114063;27;20027;-57
2022/07/11 10:04:05;;;;;;;37.90;21.70;;;;;;;18.65;75.23;100105.00;5122182;27;20023;-57
2022/07/11 10:06:30;;;;;;;36.25;21.75;;;;;;;18.88;73.49;100103.63;5101081;28;20128;-57
2022/07/11 10:08:56;;;;;;;35.85;21.20;;;;;;;18.71;74.15;100103.88;5113745;27;20035;-57
2022/07/11 10:11:21;;;;;;;37.55;22.38;;;;;;;18.88;73.91;100102.81;5119140;27;20080;-57
2022/07/11 10:13:46;;;;;;;33.50;20.77;;;;;;;19.13;73.33;100102.72;5117579;27;20028;-57
2022/07/11 10:16:35;;;;;;;29.40;19.45;;;;;;;19.38;71.76;100106.41;5114907;27;20255;-57
2022/07/11 10:19:10;;;;;;;28.38;18.60;;;;;;;19.65;70.12;100105.19;5094355;28;20046;-57
2022/07/11 10:21:53;;;;;;;26.13;17.52;;;;;;;19.12;71.73;100109.25;5114970;27;20363;-57
2022/07/11 10:24:32;;;;;;;27.40;17.38;;;;;;;19.22;72.19;100107.56;5113194;27;20076;-57
2022/07/11 10:27:02;;;;;;;21.23;15.35;;;;;;;19.82;69.01;100108.38;5070639;27;20035;-57
2022/07/11 10:29:31;;;;;;;;;;;;;;;20.22;67.79;100106.44;5115611;27;20039;-57
2022/07/11 10:32:14;;;;;;;22.92;15.50;;;;;;;20.37;67.75;100106.31;5120676;27;19920;-56
2022/07/11 10:34:40;;;;;;;26.75;15.48;;;;;;;19.73;69.96;100112.78;5096471;27;20474;-57
2022/07/11 10:37:06;;;;;;;25.88;15.43;;;;;;;19.95;68.89;100105.00;5117781;27;20035;-57
2022/07/11 10:39:34;;;;;;;22.48;15.18;;;;;;;20.35;67.21;100108.50;5111341;27;20485;-57
2022/07/11 10:42:00;;;;;;;24.35;15.70;;;;;;;18.98;71.61;100105.50;5122061;27;20038;-56
2022/07/11 10:44:27;;;;;;;25.23;15.88;;;;;;;19.24;72.04;100099.94;5117355;27;20020;-57
2022/07/11 10:46:53;;;;;;;33.10;16.75;;;;;;;20.00;69.05;100102.25;5120189;27;20059;-56
2022/07/11 10:49:57;;;;;;;26.33;15.75;;;;;;;20.47;67.11;100108.94;5079403;28;20032;-57
2022/07/11 10:52:23;;;;;;;28.92;15.95;;;;;;;20.43;66.81;100110.59;5025400;28;20037;-56
2022/07/11 10:54:58;;;;;;;28.92;15.38;;;;;;;21.20;64.79;100095.38;5026565;28;20082;-56
2022/07/11 10:57:40;;;;;;;30.48;16.33;;;;;;;21.38;65.07;100099.22;5040962;28;20039;-56
2022/07/11 11:00:08;;;;;;;30.17;17.48;;;;;;;21.57;64.08;100100.09;5100905;27;20110;-56
2022/07/11 11:03:04;;;;;;;33.00;17.23;;;;;;;21.76;62.76;100102.78;5119894;27;20038;-57
2022/07/11 11:05:44;;;;;;;27.27;16.55;;;;;;;22.06;62.06;100106.97;5089328;28;20020;-56
2022/07/11 11:08:31;;;;;;;24.90;15.20;;;;;;;22.24;61.86;100102.63;5118364;27;20489;-57
2022/07/11 11:10:56;;;;;;;28.00;15.55;;;;;;;21.85;61.87;100105.69;5121733;27;20039;-56
2022/07/11 11:13:22;;;;;;;29.17;16.35;;;;;;;20.77;65.20;100108.94;5104642;27;20019;-56
2022/07/11 11:15:54;;;;;;;28.50;17.13;;;;;;;20.90;65.76;100098.16;5103870;27;20477;-56
2022/07/11 11:18:25;;;;;;;27.52;14.95;;;;;;;21.91;62.88;100099.81;5116201;27;20122;-56
2022/07/11 11:21:02;;;;;;;30.10;15.80;;;;;;;21.88;62.92;100099.63;5118258;27;20682;-56
2022/07/11 11:23:35;;;;;;;43.80;15.55;;;;;;;21.97;62.28;100100.56;5116443;27;20032;-56
2022/07/11 11:26:10;;;;;;;32.70;15.70;;;;;;;22.54;60.48;100097.72;5115181;27;20027;-56
2022/07/11 11:28:36;;;;;;;23.20;13.93;;;;;;;22.36;59.76;100097.47;5121248;27;20231;-56
2022/07/11 11:31:04;;;;;;;30.13;15.65;;;;;;;22.00;61.88;100091.78;5105911;27;20034;-56